sensor_id;sensor_type;location;lat;lon;timestamp;temperature;humidity
13464;DHT22;6804;48.774;9.174;2024-01-10T00:00:38;0.20;96.10
13464;DHT22;6804;48.774;9.174;2024-01-10T00:03:07;0.10;96.10
13464;DHT22;6804;48.774;9.174;2024-01-10T00:05:38;0.20;96.00
13464;DHT22;6804;48.774;9.174;2024-01-10T00:08:06;0.20;94.70
13464;DHT22;6804;48.774;9.174;2024-01-10T00:10:36;-0.10;94.50
13464;DHT22;6804;48.774;9.174;2024-01-10T00:13:07;-0.40;94.40
13464;DHT22;6804;48.774;9.174;2024-01-10T00:15:37;-0.60;94.90
13464;DHT22;6804;48.774;9.174;2024-01-10T00:18:09;-0.70;94.50
13464;DHT22;6804;48.774;9.174;2024-01-10T00:20:36;-0.70;94.50
13464;DHT22;6804;48.774;9.174;2024-01-10T00:23:05;-0.90;94.90
13464;DHT22;6804;48.774;9.174;2024-01-10T00:25:33;-1.00;94.80
13464;DHT22;6804;48.774;9.174;2024-01-10T00:28:03;-1.00;95.40
13464;DHT22;6804;48.774;9.174;2024-01-10T00:30:30;-0.80;95.20
13464;DHT22;6804;48.774;9.174;2024-01-10T00:32:59;-0.80;95.40
13464;DHT22;6804;48.774;9.174;2024-01-10T00:35:34;-0.80;95.00
13464;DHT22;6804;48.774;9.174;2024-01-10T00:38:03;-0.80;94.90
13464;DHT22;6804;48.774;9.174;2024-01-10T00:40:41;-0.90;94.70
13464;DHT22;6804;48.774;9.174;2024-01-10T00:43:11;-0.90;95.00
13464;DHT22;6804;48.774;9.174;2024-01-10T00:45:59;-0.80;95.00
13464;DHT22;6804;48.774;9.174;2024-01-10T00:48:44;-0.90;95.40
13464;DHT22;6804;48.774;9.174;2024-01-10T00:51:13;-0.90;95.50
13464;DHT22;6804;48.774;9.174;2024-01-10T00:53:40;-0.90;95.40
13464;DHT22;6804;48.774;9.174;2024-01-10T00:56:08;-0.90;95.30
13464;DHT22;6804;48.774;9.174;2024-01-10T00:58:38;-0.90;95.50
13464;DHT22;6804;48.774;9.174;2024-01-10T01:01:08;-0.80;95.40
13464;DHT22;6804;48.774;9.174;2024-01-10T01:03:36;-0.80;95.10
13464;DHT22;6804;48.774;9.174;2024-01-10T01:06:04;-0.80;94.50
13464;DHT22;6804;48.774;9.174;2024-01-10T01:08:33;-0.90;95.40
13464;DHT22;6804;48.774;9.174;2024-01-10T01:11:00;-0.90;95.00
13464;DHT22;6804;48.774;9.174;2024-01-10T01:13:33;-1.00;95.00
13464;DHT22;6804;48.774;9.174;2024-01-10T01:16:03;-0.90;95.20
13464;DHT22;6804;48.774;9.174;2024-01-10T01:18:31;-0.90;94.70
13464;DHT22;6804;48.774;9.174;2024-01-10T01:20:58;-1.10;95.50
13464;DHT22;6804;48.774;9.174;2024-01-10T01:23:28;-1.10;95.30
13464;DHT22;6804;48.774;9.174;2024-01-10T01:29:05;-0.90;95.40
13464;DHT22;6804;48.774;9.174;2024-01-10T01:31:35;-0.80;95.40
13464;DHT22;6804;48.774;9.174;2024-01-10T01:34:03;-0.80;95.30
13464;DHT22;6804;48.774;9.174;2024-01-10T01:36:30;-0.90;95.40
13464;DHT22;6804;48.774;9.174;2024-01-10T01:38:59;-0.90;95.60
13464;DHT22;6804;48.774;9.174;2024-01-10T01:41:33;-0.80;95.80
13464;DHT22;6804;48.774;9.174;2024-01-10T01:44:02;-0.80;95.30
13464;DHT22;6804;48.774;9.174;2024-01-10T01:46:34;-0.80;95.40
13464;DHT22;6804;48.774;9.174;2024-01-10T01:49:03;-0.90;95.40
13464;DHT22;6804;48.774;9.174;2024-01-10T01:51:34;-0.90;95.30
13464;DHT22;6804;48.774;9.174;2024-01-10T01:54:06;-1.10;95.40
13464;DHT22;6804;48.774;9.174;2024-01-10T01:56:36;-1.20;95.60
13464;DHT22;6804;48.774;9.174;2024-01-10T01:59:24;-1.20;95.80
13464;DHT22;6804;48.774;9.174;2024-01-10T02:01:54;-1.20;95.90
13464;DHT22;6804;48.774;9.174;2024-01-10T02:04:25;-1.20;96.10
13464;DHT22;6804;48.774;9.174;2024-01-10T02:06:54;-1.10;96.10
13464;DHT22;6804;48.774;9.174;2024-01-10T02:09:21;-1.10;96.10
13464;DHT22;6804;48.774;9.174;2024-01-10T02:11:49;-1.20;95.90
13464;DHT22;6804;48.774;9.174;2024-01-10T02:14:25;-1.20;95.70
13464;DHT22;6804;48.774;9.174;2024-01-10T02:17:14;-1.40;96.00
13464;DHT22;6804;48.774;9.174;2024-01-10T02:19:42;-1.40;96.80
13464;DHT22;6804;48.774;9.174;2024-01-10T02:22:09;-1.40;96.50
13464;DHT22;6804;48.774;9.174;2024-01-10T02:24:59;-1.30;96.50
13464;DHT22;6804;48.774;9.174;2024-01-10T02:27:30;-1.40;96.30
13464;DHT22;6804;48.774;9.174;2024-01-10T02:29:59;-1.40;96.30
13464;DHT22;6804;48.774;9.174;2024-01-10T02:32:30;-1.40;96.40
13464;DHT22;6804;48.774;9.174;2024-01-10T02:34:58;-1.40;96.60
13464;DHT22;6804;48.774;9.174;2024-01-10T02:37:26;-1.40;96.70
13464;DHT22;6804;48.774;9.174;2024-01-10T02:39:53;-1.40;96.60
13464;DHT22;6804;48.774;9.174;2024-01-10T02:42:23;-1.40;96.30
13464;DHT22;6804;48.774;9.174;2024-01-10T02:44:52;-1.40;96.80
13464;DHT22;6804;48.774;9.174;2024-01-10T02:47:24;-1.40;96.40
13464;DHT22;6804;48.774;9.174;2024-01-10T02:49:55;-1.50;96.60
13464;DHT22;6804;48.774;9.174;2024-01-10T02:52:27;-1.40;97.10
13464;DHT22;6804;48.774;9.174;2024-01-10T02:54:55;-1.40;97.00
13464;DHT22;6804;48.774;9.174;2024-01-10T02:57:23;-1.40;97.00
13464;DHT22;6804;48.774;9.174;2024-01-10T02:59:51;-1.40;97.20
13464;DHT22;6804;48.774;9.174;2024-01-10T03:02:25;-1.40;97.50
13464;DHT22;6804;48.774;9.174;2024-01-10T03:04:54;-1.30;97.40
13464;DHT22;6804;48.774;9.174;2024-01-10T03:07:23;-1.40;97.40
13464;DHT22;6804;48.774;9.174;2024-01-10T03:09:54;-1.50;97.50
13464;DHT22;6804;48.774;9.174;2024-01-10T03:12:26;-1.60;97.60
13464;DHT22;6804;48.774;9.174;2024-01-10T03:14:54;-1.50;98.00
13464;DHT22;6804;48.774;9.174;2024-01-10T03:17:24;-1.40;98.20
13464;DHT22;6804;48.774;9.174;2024-01-10T03:19:54;-1.30;98.30
13464;DHT22;6804;48.774;9.174;2024-01-10T03:22:23;-1.20;97.70
13464;DHT22;6804;48.774;9.174;2024-01-10T03:24:58;-1.20;97.60
13464;DHT22;6804;48.774;9.174;2024-01-10T03:27:27;-1.40;97.50
13464;DHT22;6804;48.774;9.174;2024-01-10T03:29:57;-1.40;97.90
13464;DHT22;6804;48.774;9.174;2024-01-10T03:32:27;-1.50;97.90
13464;DHT22;6804;48.774;9.174;2024-01-10T03:34:55;-1.50;98.20
13464;DHT22;6804;48.774;9.174;2024-01-10T03:37:25;-1.50;98.10
13464;DHT22;6804;48.774;9.174;2024-01-10T03:39:52;-1.40;98.30
13464;DHT22;6804;48.774;9.174;2024-01-10T03:42:27;-1.40;98.50
13464;DHT22;6804;48.774;9.174;2024-01-10T03:44:57;-1.20;98.30
13464;DHT22;6804;48.774;9.174;2024-01-10T03:47:27;-1.20;98.10
13464;DHT22;6804;48.774;9.174;2024-01-10T03:49:54;-1.20;98.30
13464;DHT22;6804;48.774;9.174;2024-01-10T03:52:25;-1.20;98.20
13464;DHT22;6804;48.774;9.174;2024-01-10T03:54:52;-1.30;98.50
13464;DHT22;6804;48.774;9.174;2024-01-10T03:57:23;-1.30;98.40
13464;DHT22;6804;48.774;9.174;2024-01-10T03:59:52;-1.20;98.50
13464;DHT22;6804;48.774;9.174;2024-01-10T04:02:19;-1.20;98.40
13464;DHT22;6804;48.774;9.174;2024-01-10T04:04:47;-1.30;98.50
13464;DHT22;6804;48.774;9.174;2024-01-10T04:07:15;-1.30;98.70
13464;DHT22;6804;48.774;9.174;2024-01-10T04:09:43;-1.40;98.60
13464;DHT22;6804;48.774;9.174;2024-01-10T04:12:15;-1.40;98.80
13464;DHT22;6804;48.774;9.174;2024-01-10T04:14:48;-1.60;98.90
13464;DHT22;6804;48.774;9.174;2024-01-10T04:17:16;-1.60;99.30
13464;DHT22;6804;48.774;9.174;2024-01-10T04:19:46;-1.60;99.10
13464;DHT22;6804;48.774;9.174;2024-01-10T04:22:14;-1.60;99.30
13464;DHT22;6804;48.774;9.174;2024-01-10T04:24:41;-1.50;99.50
13464;DHT22;6804;48.774;9.174;2024-01-10T04:27:08;-1.50;99.40
13464;DHT22;6804;48.774;9.174;2024-01-10T04:29:35;-1.40;99.70
13464;DHT22;6804;48.774;9.174;2024-01-10T04:32:04;-1.30;99.50
13464;DHT22;6804;48.774;9.174;2024-01-10T04:34:32;-1.10;99.60
13464;DHT22;6804;48.774;9.174;2024-01-10T04:37:00;-1.00;99.70
13464;DHT22;6804;48.774;9.174;2024-01-10T04:39:27;-0.90;99.20
13464;DHT22;6804;48.774;9.174;2024-01-10T04:41:57;-0.80;99.30
13464;DHT22;6804;48.774;9.174;2024-01-10T04:44:27;-0.70;99.00
13464;DHT22;6804;48.774;9.174;2024-01-10T04:46:57;-0.60;99.10
13464;DHT22;6804;48.774;9.174;2024-01-10T04:49:28;-0.50;98.80
13464;DHT22;6804;48.774;9.174;2024-01-10T04:51:57;-0.60;98.10
13464;DHT22;6804;48.774;9.174;2024-01-10T04:54:24;-0.80;98.60
13464;DHT22;6804;48.774;9.174;2024-01-10T04:56:57;-0.90;98.90
13464;DHT22;6804;48.774;9.174;2024-01-10T04:59:27;-1.00;98.60
13464;DHT22;6804;48.774;9.174;2024-01-10T05:01:57;-0.90;98.80
13464;DHT22;6804;48.774;9.174;2024-01-10T05:04:26;-1.00;98.60
13464;DHT22;6804;48.774;9.174;2024-01-10T05:06:53;-1.10;99.00
13464;DHT22;6804;48.774;9.174;2024-01-10T05:09:22;-1.00;99.20
13464;DHT22;6804;48.774;9.174;2024-01-10T05:11:49;-1.00;99.00
13464;DHT22;6804;48.774;9.174;2024-01-10T05:14:17;-1.10;99.30
13464;DHT22;6804;48.774;9.174;2024-01-10T05:16:47;-0.90;99.20
13464;DHT22;6804;48.774;9.174;2024-01-10T05:19:16;-0.90;99.20
13464;DHT22;6804;48.774;9.174;2024-01-10T05:21:47;-0.90;99.30
13464;DHT22;6804;48.774;9.174;2024-01-10T05:24:17;-0.80;99.00
13464;DHT22;6804;48.774;9.174;2024-01-10T05:26:46;-0.70;99.40
13464;DHT22;6804;48.774;9.174;2024-01-10T05:29:17;-0.60;99.20
13464;DHT22;6804;48.774;9.174;2024-01-10T05:31:46;-0.50;98.70
13464;DHT22;6804;48.774;9.174;2024-01-10T05:34:19;-0.60;99.00
13464;DHT22;6804;48.774;9.174;2024-01-10T05:36:49;-0.60;99.50
13464;DHT22;6804;48.774;9.174;2024-01-10T05:39:17;-0.50;99.10
13464;DHT22;6804;48.774;9.174;2024-01-10T05:41:48;-0.50;98.90
13464;DHT22;6804;48.774;9.174;2024-01-10T05:44:20;-0.40;99.20
13464;DHT22;6804;48.774;9.174;2024-01-10T05:46:48;-0.30;98.80
13464;DHT22;6804;48.774;9.174;2024-01-10T05:49:15;-0.30;98.70
13464;DHT22;6804;48.774;9.174;2024-01-10T05:51:42;-0.30;98.30
13464;DHT22;6804;48.774;9.174;2024-01-10T05:54:12;-0.40;98.60
13464;DHT22;6804;48.774;9.174;2024-01-10T05:56:41;-0.50;98.70
13464;DHT22;6804;48.774;9.174;2024-01-10T05:59:11;-0.70;98.90
13464;DHT22;6804;48.774;9.174;2024-01-10T06:01:41;-0.90;99.20
13464;DHT22;6804;48.774;9.174;2024-01-10T06:04:09;-0.90;99.60
13464;DHT22;6804;48.774;9.174;2024-01-10T06:06:37;-0.90;99.20
13464;DHT22;6804;48.774;9.174;2024-01-10T06:09:06;-0.90;99.50
13464;DHT22;6804;48.774;9.174;2024-01-10T06:11:41;-0.90;99.20
13464;DHT22;6804;48.774;9.174;2024-01-10T06:14:17;-0.90;99.00
13464;DHT22;6804;48.774;9.174;2024-01-10T06:16:44;-0.90;99.60
13464;DHT22;6804;48.774;9.174;2024-01-10T06:19:12;-1.00;99.30
13464;DHT22;6804;48.774;9.174;2024-01-10T06:21:42;-0.90;99.90
13464;DHT22;6804;48.774;9.174;2024-01-10T06:24:10;-0.90;99.80
13464;DHT22;6804;48.774;9.174;2024-01-10T06:26:40;-0.80;99.20
13464;DHT22;6804;48.774;9.174;2024-01-10T06:29:11;-1.00;99.50
13464;DHT22;6804;48.774;9.174;2024-01-10T06:31:59;-1.00;99.80
13464;DHT22;6804;48.774;9.174;2024-01-10T06:34:27;-0.90;99.70
13464;DHT22;6804;48.774;9.174;2024-01-10T06:36:57;-0.80;99.50
13464;DHT22;6804;48.774;9.174;2024-01-10T06:39:24;-0.90;99.40
13464;DHT22;6804;48.774;9.174;2024-01-10T06:41:52;-0.90;99.90
13464;DHT22;6804;48.774;9.174;2024-01-10T06:44:20;-0.80;99.90
13464;DHT22;6804;48.774;9.174;2024-01-10T06:46:47;-0.80;99.60
13464;DHT22;6804;48.774;9.174;2024-01-10T06:49:22;-0.70;99.90
13464;DHT22;6804;48.774;9.174;2024-01-10T06:51:49;-0.60;99.90
13464;DHT22;6804;48.774;9.174;2024-01-10T06:54:17;-0.50;99.80
13464;DHT22;6804;48.774;9.174;2024-01-10T06:56:45;-0.60;99.70
13464;DHT22;6804;48.774;9.174;2024-01-10T06:59:13;-0.60;99.90
13464;DHT22;6804;48.774;9.174;2024-01-10T07:01:42;-0.60;99.50
13464;DHT22;6804;48.774;9.174;2024-01-10T07:04:12;-0.70;99.80
13464;DHT22;6804;48.774;9.174;2024-01-10T07:06:43;-0.70;99.90
13464;DHT22;6804;48.774;9.174;2024-01-10T07:09:11;-0.80;99.90
13464;DHT22;6804;48.774;9.174;2024-01-10T07:11:40;-0.80;99.90
13464;DHT22;6804;48.774;9.174;2024-01-10T07:14:07;-0.80;99.90
13464;DHT22;6804;48.774;9.174;2024-01-10T07:16:40;-0.70;99.90
13464;DHT22;6804;48.774;9.174;2024-01-10T07:19:11;-0.60;99.90
13464;DHT22;6804;48.774;9.174;2024-01-10T07:21:40;-0.60;99.90
13464;DHT22;6804;48.774;9.174;2024-01-10T07:24:09;-0.40;99.90
13464;DHT22;6804;48.774;9.174;2024-01-10T07:26:38;-0.50;99.70
13464;DHT22;6804;48.774;9.174;2024-01-10T07:29:06;-0.50;99.90
13464;DHT22;6804;48.774;9.174;2024-01-10T07:31:34;-0.40;99.90
13464;DHT22;6804;48.774;9.174;2024-01-10T07:34:02;-0.30;99.90
13464;DHT22;6804;48.774;9.174;2024-01-10T07:36:31;-0.30;99.90
13464;DHT22;6804;48.774;9.174;2024-01-10T07:39:02;-0.30;99.90
13464;DHT22;6804;48.774;9.174;2024-01-10T07:41:31;-0.20;99.90
13464;DHT22;6804;48.774;9.174;2024-01-10T07:44:01;-0.20;99.90
13464;DHT22;6804;48.774;9.174;2024-01-10T07:46:48;-0.10;99.90
13464;DHT22;6804;48.774;9.174;2024-01-10T07:49:24;-0.10;99.90
13464;DHT22;6804;48.774;9.174;2024-01-10T07:51:54;0.00;99.90
13464;DHT22;6804;48.774;9.174;2024-01-10T07:54:25;0.00;99.90
13464;DHT22;6804;48.774;9.174;2024-01-10T07:56:54;0.00;99.90
13464;DHT22;6804;48.774;9.174;2024-01-10T07:59:21;0.00;99.90
13464;DHT22;6804;48.774;9.174;2024-01-10T08:01:57;0.10;99.90
13464;DHT22;6804;48.774;9.174;2024-01-10T08:04:25;0.10;99.90
13464;DHT22;6804;48.774;9.174;2024-01-10T08:07:00;0.20;99.90
13464;DHT22;6804;48.774;9.174;2024-01-10T08:09:28;0.30;99.90
13464;DHT22;6804;48.774;9.174;2024-01-10T08:12:18;0.20;99.80
13464;DHT22;6804;48.774;9.174;2024-01-10T08:14:48;0.30;99.90
13464;DHT22;6804;48.774;9.174;2024-01-10T08:17:16;0.40;99.90
13464;DHT22;6804;48.774;9.174;2024-01-10T08:19:44;0.40;99.90
13464;DHT22;6804;48.774;9.174;2024-01-10T08:22:13;0.20;99.90
13464;DHT22;6804;48.774;9.174;2024-01-10T08:24:44;0.10;99.90
13464;DHT22;6804;48.774;9.174;2024-01-10T08:27:12;-0.10;99.90
13464;DHT22;6804;48.774;9.174;2024-01-10T08:29:41;-0.10;99.90
13464;DHT22;6804;48.774;9.174;2024-01-10T08:32:11;0.00;99.90
13464;DHT22;6804;48.774;9.174;2024-01-10T08:34:43;-0.20;99.90
13464;DHT22;6804;48.774;9.174;2024-01-10T08:37:15;-0.10;99.90
13464;DHT22;6804;48.774;9.174;2024-01-10T08:39:43;0.10;99.90
13464;DHT22;6804;48.774;9.174;2024-01-10T08:42:11;0.30;99.90
13464;DHT22;6804;48.774;9.174;2024-01-10T08:44:59;0.30;99.90
13464;DHT22;6804;48.774;9.174;2024-01-10T08:47:29;0.50;99.90
13464;DHT22;6804;48.774;9.174;2024-01-10T08:50:18;0.60;99.90
13464;DHT22;6804;48.774;9.174;2024-01-10T08:52:48;0.70;99.90
13464;DHT22;6804;48.774;9.174;2024-01-10T08:55:15;0.90;99.70
13464;DHT22;6804;48.774;9.174;2024-01-10T08:57:43;0.90;99.70
13464;DHT22;6804;48.774;9.174;2024-01-10T09:00:15;1.10;99.10
13464;DHT22;6804;48.774;9.174;2024-01-10T09:02:43;1.20;99.20
13464;DHT22;6804;48.774;9.174;2024-01-10T09:05:29;1.30;98.80
13464;DHT22;6804;48.774;9.174;2024-01-10T09:07:57;1.30;98.30
13464;DHT22;6804;48.774;9.174;2024-01-10T09:10:24;1.10;98.60
13464;DHT22;6804;48.774;9.174;2024-01-10T09:12:58;0.90;99.20
13464;DHT22;6804;48.774;9.174;2024-01-10T09:15:29;1.00;99.00
13464;DHT22;6804;48.774;9.174;2024-01-10T09:17:57;1.10;99.10
13464;DHT22;6804;48.774;9.174;2024-01-10T09:20:24;1.10;99.10
13464;DHT22;6804;48.774;9.174;2024-01-10T09:22:52;1.30;98.70
13464;DHT22;6804;48.774;9.174;2024-01-10T09:25:39;1.20;98.20
13464;DHT22;6804;48.774;9.174;2024-01-10T09:28:08;1.00;98.20
13464;DHT22;6804;48.774;9.174;2024-01-10T09:30:37;1.00;99.20
13464;DHT22;6804;48.774;9.174;2024-01-10T09:33:05;1.10;99.40
13464;DHT22;6804;48.774;9.174;2024-01-10T09:35:32;1.10;98.60
13464;DHT22;6804;48.774;9.174;2024-01-10T09:38:19;1.00;98.60
13464;DHT22;6804;48.774;9.174;2024-01-10T09:40:53;0.90;99.00
13464;DHT22;6804;48.774;9.174;2024-01-10T09:43:28;1.10;99.50
13464;DHT22;6804;48.774;9.174;2024-01-10T09:46:00;1.10;99.00
13464;DHT22;6804;48.774;9.174;2024-01-10T09:48:31;1.20;99.20
13464;DHT22;6804;48.774;9.174;2024-01-10T09:50:59;1.30;99.00
13464;DHT22;6804;48.774;9.174;2024-01-10T09:53:27;1.40;98.90
13464;DHT22;6804;48.774;9.174;2024-01-10T09:55:56;1.20;98.90
13464;DHT22;6804;48.774;9.174;2024-01-10T09:58:27;1.10;99.20
13464;DHT22;6804;48.774;9.174;2024-01-10T10:00:55;0.90;99.00
13464;DHT22;6804;48.774;9.174;2024-01-10T10:03:26;0.80;99.90
13464;DHT22;6804;48.774;9.174;2024-01-10T10:05:57;0.90;99.90
13464;DHT22;6804;48.774;9.174;2024-01-10T10:08:27;1.10;99.90
13464;DHT22;6804;48.774;9.174;2024-01-10T10:10:54;1.30;99.90
13464;DHT22;6804;48.774;9.174;2024-01-10T10:13:26;1.40;99.60
13464;DHT22;6804;48.774;9.174;2024-01-10T10:16:00;1.50;99.80
13464;DHT22;6804;48.774;9.174;2024-01-10T10:18:30;1.30;99.50
13464;DHT22;6804;48.774;9.174;2024-01-10T10:21:07;1.30;99.60
13464;DHT22;6804;48.774;9.174;2024-01-10T10:23:36;1.30;99.90
13464;DHT22;6804;48.774;9.174;2024-01-10T10:26:12;1.40;99.90
13464;DHT22;6804;48.774;9.174;2024-01-10T10:28:48;1.60;99.90
13464;DHT22;6804;48.774;9.174;2024-01-10T10:31:17;1.80;99.50
13464;DHT22;6804;48.774;9.174;2024-01-10T10:33:50;1.90;99.20
13464;DHT22;6804;48.774;9.174;2024-01-10T10:36:18;1.90;99.40
13464;DHT22;6804;48.774;9.174;2024-01-10T10:38:49;2.00;99.70
13464;DHT22;6804;48.774;9.174;2024-01-10T10:41:16;2.10;99.60
13464;DHT22;6804;48.774;9.174;2024-01-10T10:43:49;2.20;99.30
13464;DHT22;6804;48.774;9.174;2024-01-10T10:46:19;2.10;99.00
13464;DHT22;6804;48.774;9.174;2024-01-10T10:48:49;2.00;99.70
13464;DHT22;6804;48.774;9.174;2024-01-10T10:51:22;1.90;99.50
13464;DHT22;6804;48.774;9.174;2024-01-10T10:53:52;1.90;99.30
13464;DHT22;6804;48.774;9.174;2024-01-10T10:56:21;2.00;99.90
13464;DHT22;6804;48.774;9.174;2024-01-10T10:58:49;2.10;99.90
13464;DHT22;6804;48.774;9.174;2024-01-10T11:01:17;2.40;99.90
13464;DHT22;6804;48.774;9.174;2024-01-10T11:03:46;2.50;99.00
13464;DHT22;6804;48.774;9.174;2024-01-10T11:06:19;2.70;99.70
13464;DHT22;6804;48.774;9.174;2024-01-10T11:08:50;2.90;99.00
13464;DHT22;6804;48.774;9.174;2024-01-10T11:11:30;3.00;99.40
13464;DHT22;6804;48.774;9.174;2024-01-10T11:14:18;3.10;98.30
13464;DHT22;6804;48.774;9.174;2024-01-10T11:17:14;3.10;98.80
13464;DHT22;6804;48.774;9.174;2024-01-10T11:20:14;3.30;98.90
13464;DHT22;6804;48.774;9.174;2024-01-10T11:23:00;3.50;98.80
13464;DHT22;6804;48.774;9.174;2024-01-10T11:25:31;3.70;98.30
13464;DHT22;6804;48.774;9.174;2024-01-10T11:28:04;3.50;98.00
13464;DHT22;6804;48.774;9.174;2024-01-10T11:30:39;3.20;98.40
13464;DHT22;6804;48.774;9.174;2024-01-10T11:33:23;3.20;99.00
13464;DHT22;6804;48.774;9.174;2024-01-10T11:36:14;3.30;98.80
13464;DHT22;6804;48.774;9.174;2024-01-10T11:38:49;3.50;98.20
13464;DHT22;6804;48.774;9.174;2024-01-10T11:41:21;3.40;98.30
13464;DHT22;6804;48.774;9.174;2024-01-10T11:46:58;3.70;98.20
13464;DHT22;6804;48.774;9.174;2024-01-10T11:49:30;3.90;98.30
13464;DHT22;6804;48.774;9.174;2024-01-10T11:51:58;4.00;98.60
13464;DHT22;6804;48.774;9.174;2024-01-10T11:54:41;4.10;97.90
13464;DHT22;6804;48.774;9.174;2024-01-10T11:57:12;4.00;98.20
13464;DHT22;6804;48.774;9.174;2024-01-10T11:59:42;4.10;98.30
13464;DHT22;6804;48.774;9.174;2024-01-10T12:02:20;4.10;98.30
13464;DHT22;6804;48.774;9.174;2024-01-10T12:04:48;4.30;97.80
13464;DHT22;6804;48.774;9.174;2024-01-10T12:07:17;4.40;97.30
13464;DHT22;6804;48.774;9.174;2024-01-10T12:09:49;4.40;98.30
13464;DHT22;6804;48.774;9.174;2024-01-10T12:12:18;4.70;98.30
13464;DHT22;6804;48.774;9.174;2024-01-10T12:14:46;4.80;97.30
13464;DHT22;6804;48.774;9.174;2024-01-10T12:17:18;5.00;97.90
13464;DHT22;6804;48.774;9.174;2024-01-10T12:19:46;5.20;97.60
13464;DHT22;6804;48.774;9.174;2024-01-10T12:22:19;5.30;97.00
13464;DHT22;6804;48.774;9.174;2024-01-10T12:24:49;5.40;96.90
13464;DHT22;6804;48.774;9.174;2024-01-10T12:27:21;4.90;96.10
13464;DHT22;6804;48.774;9.174;2024-01-10T12:29:49;4.20;97.60
13464;DHT22;6804;48.774;9.174;2024-01-10T12:32:18;3.80;97.90
13464;DHT22;6804;48.774;9.174;2024-01-10T12:34:57;3.30;98.40
13464;DHT22;6804;48.774;9.174;2024-01-10T12:37:27;3.20;99.30
13464;DHT22;6804;48.774;9.174;2024-01-10T12:39:57;2.90;99.20
13464;DHT22;6804;48.774;9.174;2024-01-10T12:42:32;2.80;99.70
13464;DHT22;6804;48.774;9.174;2024-01-10T12:45:00;2.80;99.90
13464;DHT22;6804;48.774;9.174;2024-01-10T12:47:30;3.00;99.90
13464;DHT22;6804;48.774;9.174;2024-01-10T12:49:59;2.90;99.80
13464;DHT22;6804;48.774;9.174;2024-01-10T12:52:27;2.80;99.90
13464;DHT22;6804;48.774;9.174;2024-01-10T12:55:01;2.70;99.90
13464;DHT22;6804;48.774;9.174;2024-01-10T12:57:29;2.80;99.90
13464;DHT22;6804;48.774;9.174;2024-01-10T12:59:59;2.90;99.90
13464;DHT22;6804;48.774;9.174;2024-01-10T13:02:33;3.00;99.90
13464;DHT22;6804;48.774;9.174;2024-01-10T13:05:03;3.10;99.90
13464;DHT22;6804;48.774;9.174;2024-01-10T13:07:32;3.30;99.90
13464;DHT22;6804;48.774;9.174;2024-01-10T13:10:02;3.30;99.90
13464;DHT22;6804;48.774;9.174;2024-01-10T13:12:30;3.10;99.90
13464;DHT22;6804;48.774;9.174;2024-01-10T13:15:01;3.20;99.90
13464;DHT22;6804;48.774;9.174;2024-01-10T13:17:29;3.10;99.90
13464;DHT22;6804;48.774;9.174;2024-01-10T13:19:57;3.40;99.90
13464;DHT22;6804;48.774;9.174;2024-01-10T13:22:24;3.40;99.90
13464;DHT22;6804;48.774;9.174;2024-01-10T13:24:52;3.40;99.90
13464;DHT22;6804;48.774;9.174;2024-01-10T13:27:23;3.50;99.90
13464;DHT22;6804;48.774;9.174;2024-01-10T13:29:51;3.70;99.90
13464;DHT22;6804;48.774;9.174;2024-01-10T13:32:21;3.90;99.90
13464;DHT22;6804;48.774;9.174;2024-01-10T13:34:49;4.10;99.90
13464;DHT22;6804;48.774;9.174;2024-01-10T13:37:20;4.30;99.30
13464;DHT22;6804;48.774;9.174;2024-01-10T13:39:48;4.30;98.90
13464;DHT22;6804;48.774;9.174;2024-01-10T13:42:18;4.40;99.60
13464;DHT22;6804;48.774;9.174;2024-01-10T13:45:09;4.40;98.90
13464;DHT22;6804;48.774;9.174;2024-01-10T13:47:39;4.20;99.20
13464;DHT22;6804;48.774;9.174;2024-01-10T13:50:07;4.30;99.70
13464;DHT22;6804;48.774;9.174;2024-01-10T13:52:39;4.10;98.70
13464;DHT22;6804;48.774;9.174;2024-01-10T13:55:10;3.70;99.70
13464;DHT22;6804;48.774;9.174;2024-01-10T13:57:38;3.50;99.90
13464;DHT22;6804;48.774;9.174;2024-01-10T14:00:09;3.30;99.90
13464;DHT22;6804;48.774;9.174;2024-01-10T14:02:44;3.20;99.90
13464;DHT22;6804;48.774;9.174;2024-01-10T14:05:13;3.40;99.90
13464;DHT22;6804;48.774;9.174;2024-01-10T14:07:44;3.60;99.90
13464;DHT22;6804;48.774;9.174;2024-01-10T14:10:12;3.40;99.90
13464;DHT22;6804;48.774;9.174;2024-01-10T14:12:40;3.30;99.90
13464;DHT22;6804;48.774;9.174;2024-01-10T14:15:09;3.10;99.90
13464;DHT22;6804;48.774;9.174;2024-01-10T14:17:36;3.10;99.90
13464;DHT22;6804;48.774;9.174;2024-01-10T14:20:06;3.30;99.90
13464;DHT22;6804;48.774;9.174;2024-01-10T14:22:35;3.60;99.90
13464;DHT22;6804;48.774;9.174;2024-01-10T14:25:05;3.80;99.90
13464;DHT22;6804;48.774;9.174;2024-01-10T14:27:40;4.00;99.90
13464;DHT22;6804;48.774;9.174;2024-01-10T14:30:08;4.10;99.90
13464;DHT22;6804;48.774;9.174;2024-01-10T14:32:41;4.20;99.90
13464;DHT22;6804;48.774;9.174;2024-01-10T14:35:12;4.30;99.90
13464;DHT22;6804;48.774;9.174;2024-01-10T14:37:44;4.40;99.80
13464;DHT22;6804;48.774;9.174;2024-01-10T14:40:13;4.40;99.40
13464;DHT22;6804;48.774;9.174;2024-01-10T14:42:42;4.40;99.20
13464;DHT22;6804;48.774;9.174;2024-01-10T14:45:11;4.30;98.70
13464;DHT22;6804;48.774;9.174;2024-01-10T14:47:52;4.10;99.20
13464;DHT22;6804;48.774;9.174;2024-01-10T14:50:24;4.20;99.60
13464;DHT22;6804;48.774;9.174;2024-01-10T14:52:51;4.20;99.50
13464;DHT22;6804;48.774;9.174;2024-01-10T14:55:25;4.30;99.50
13464;DHT22;6804;48.774;9.174;2024-01-10T14:57:54;4.30;99.00
13464;DHT22;6804;48.774;9.174;2024-01-10T15:00:24;4.30;99.10
13464;DHT22;6804;48.774;9.174;2024-01-10T15:02:52;4.30;99.00
13464;DHT22;6804;48.774;9.174;2024-01-10T15:05:22;4.20;98.50
13464;DHT22;6804;48.774;9.174;2024-01-10T15:07:51;3.90;99.00
13464;DHT22;6804;48.774;9.174;2024-01-10T15:10:19;3.70;99.10
13464;DHT22;6804;48.774;9.174;2024-01-10T15:12:54;3.60;99.70
13464;DHT22;6804;48.774;9.174;2024-01-10T15:15:22;3.70;99.90
13464;DHT22;6804;48.774;9.174;2024-01-10T15:17:54;3.70;99.50
13464;DHT22;6804;48.774;9.174;2024-01-10T15:20:23;3.70;99.70
13464;DHT22;6804;48.774;9.174;2024-01-10T15:22:54;3.70;99.70
13464;DHT22;6804;48.774;9.174;2024-01-10T15:25:25;3.80;99.70
13464;DHT22;6804;48.774;9.174;2024-01-10T15:27:55;3.80;99.30
13464;DHT22;6804;48.774;9.174;2024-01-10T15:30:23;3.80;99.20
13464;DHT22;6804;48.774;9.174;2024-01-10T15:32:52;3.50;99.60
13464;DHT22;6804;48.774;9.174;2024-01-10T15:35:25;3.40;99.70
13464;DHT22;6804;48.774;9.174;2024-01-10T15:37:53;3.40;99.90
13464;DHT22;6804;48.774;9.174;2024-01-10T15:40:38;3.50;99.90
13464;DHT22;6804;48.774;9.174;2024-01-10T15:43:07;3.50;99.90
13464;DHT22;6804;48.774;9.174;2024-01-10T15:45:36;3.50;99.90
13464;DHT22;6804;48.774;9.174;2024-01-10T15:48:04;3.30;99.60
13464;DHT22;6804;48.774;9.174;2024-01-10T15:50:33;3.30;99.90
13464;DHT22;6804;48.774;9.174;2024-01-10T15:53:01;3.30;99.90
13464;DHT22;6804;48.774;9.174;2024-01-10T15:55:32;3.40;99.90
13464;DHT22;6804;48.774;9.174;2024-01-10T15:58:04;3.50;99.90
13464;DHT22;6804;48.774;9.174;2024-01-10T16:00:33;3.60;99.90
13464;DHT22;6804;48.774;9.174;2024-01-10T16:03:03;3.70;99.90
13464;DHT22;6804;48.774;9.174;2024-01-10T16:05:36;3.70;99.60
13464;DHT22;6804;48.774;9.174;2024-01-10T16:08:07;3.60;99.60
13464;DHT22;6804;48.774;9.174;2024-01-10T16:10:37;3.40;99.70
13464;DHT22;6804;48.774;9.174;2024-01-10T16:13:05;3.10;99.80
13464;DHT22;6804;48.774;9.174;2024-01-10T16:15:36;2.80;99.90
13464;DHT22;6804;48.774;9.174;2024-01-10T16:18:06;2.60;99.90
13464;DHT22;6804;48.774;9.174;2024-01-10T16:20:36;2.50;99.90
13464;DHT22;6804;48.774;9.174;2024-01-10T16:23:06;2.40;99.90